Time;durP1;ratioP1;P1;durP2;ratioP2;P2;SDS_P1;SDS_P2;PMS_P1;PMS_P2;Temp;Humidity;BMP_temperature;BMP_pressure;BME280_temperature;BME280_humidity;BME280_pressure;Samples;Min_cycle;Max_cycle;Signal;HPM_P1;HPM_P2
2021/07/04 06:37:17;;;;;;;;;5.00;4.00;;;;;20.45;71.17;100962.84;5328095;23;45652;-82
2021/07/04 06:39:42;;;;;;;;;4.25;4.25;;;;;20.44;70.99;100961.16;5017450;28;45461;-82
2021/07/04 06:42:09;;;;;;;;;6.25;5.00;;;;;20.46;71.10;100972.56;5014907;28;45359;-81
2021/07/04 06:44:36;;;;;;;;;5.50;3.00;;;;;20.41;70.88;100956.03;5016040;28;45559;-82
2021/07/04 06:47:01;;;;;;;;;4.00;3.00;;;;;20.36;70.58;100952.81;5016590;28;45419;-82
2021/07/04 06:49:27;;;;;;;;;4.00;2.75;;;;;20.31;70.70;100965.66;5009546;28;45247;-81
2021/07/04 06:51:52;;;;;;;;;3.75;3.75;;;;;20.30;72.15;100966.59;5016029;28;45449;-81
2021/07/04 06:54:17;;;;;;;;;5.00;4.50;;;;;20.24;71.59;100960.75;5015947;28;47041;-81
2021/07/04 06:56:43;;;;;;;;;5.00;3.25;;;;;20.22;71.20;100969.84;5015128;28;45824;-81
2021/07/04 06:59:08;;;;;;;;;3.75;3.75;;;;;20.18;71.15;100954.97;5013077;28;45293;-81
2021/07/04 07:01:33;;;;;;;;;4.25;2.75;;;;;20.17;70.62;100961.28;4991195;28;45960;-80
2021/07/04 07:03:59;;;;;;;;;3.00;2.25;;;;;20.14;71.10;100962.38;5011161;28;46229;-80
2021/07/04 07:06:25;;;;;;;;;3.50;3.50;;;;;20.13;70.82;100964.19;5020010;28;45364;-81
2021/07/04 07:08:52;;;;;;;;;3.00;3.00;;;;;20.16;71.21;100968.44;5016655;28;45403;-80
2021/07/04 07:11:17;;;;;;;;;3.00;3.00;;;;;20.18;70.95;100969.19;5018227;28;45371;-80
2021/07/04 07:13:42;;;;;;;;;4.75;4.00;;;;;20.24;70.93;100966.09;5021503;28;45293;-80
2021/07/04 07:16:08;;;;;;;;;2.75;2.75;;;;;20.32;71.71;100970.88;4999797;28;45414;-80
2021/07/04 07:18:34;;;;;;;;;3.75;2.00;;;;;20.38;71.14;100968.72;5012924;28;46013;-80
2021/07/04 07:20:59;;;;;;;;;6.00;4.00;;;;;20.35;71.22;100959.13;5014688;28;46176;-80
2021/07/04 07:23:25;;;;;;;;;5.00;3.00;;;;;20.39;70.66;100963.28;5011671;28;45891;-81
2021/07/04 07:25:51;;;;;;;;;3.00;3.00;;;;;20.44;71.21;100969.16;5018763;28;45463;-80
2021/07/04 07:28:17;;;;;;;;;3.00;3.00;;;;;20.49;70.66;100965.28;5021692;28;45426;-80
2021/07/04 07:30:42;;;;;;;;;3.25;3.25;;;;;20.49;71.05;100976.84;5021479;28;45391;-80
2021/07/04 07:33:08;;;;;;;;;3.75;3.25;;;;;20.54;70.76;100980.03;5020002;28;45489;-80
2021/07/04 07:35:33;;;;;;;;;3.75;3.75;;;;;20.57;70.81;100987.78;5001699;28;45254;-80
2021/07/04 07:38:02;;;;;;;;;4.25;3.50;;;;;20.61;70.99;100991.13;5020516;28;45300;-80
2021/07/04 07:40:30;;;;;;;;;2.25;2.25;;;;;20.57;70.41;100994.94;5020206;28;45469;-91
2021/07/04 07:42:56;;;;;;;;;3.00;3.00;;;;;20.53;70.23;100998.81;5003286;28;46390;-90
2021/07/04 07:45:21;;;;;;;;;5.00;4.00;;;;;20.49;70.37;100998.19;5003054;28;45557;-82
2021/07/04 07:47:47;;;;;;;;;4.00;4.00;;;;;20.49;70.03;100997.34;5020078;28;45138;-81
2021/07/04 07:50:12;;;;;;;;;4.00;3.00;;;;;20.48;70.13;101001.81;5019242;28;45512;-84
2021/07/04 07:52:38;;;;;;;;;3.50;3.50;;;;;20.48;69.49;101001.81;4996774;28;48354;-84
2021/07/04 07:55:05;;;;;;;;;3.50;3.00;;;;;20.50;70.40;101007.03;5011894;28;45264;-83
2021/07/04 07:57:30;;;;;;;;;3.25;3.00;;;;;20.51;69.92;101014.09;5021404;28;45206;-83
2021/07/04 07:59:56;;;;;;;;;6.50;4.75;;;;;20.50;69.76;101009.69;5021407;28;45349;-82
2021/07/04 08:02:22;;;;;;;;;3.00;3.00;;;;;20.46;69.47;101004.59;5017674;28;45510;-80
2021/07/04 08:04:47;;;;;;;;;5.50;4.00;;;;;20.44;69.82;101005.69;5016023;28;45410;-80
2021/07/04 08:07:13;;;;;;;;;6.50;3.50;;;;;20.49;71.20;101003.53;5013931;28;45713;-80
2021/07/04 08:09:38;;;;;;;;;7.00;4.50;;;;;20.43;69.60;100994.13;5017166;28;45776;-81
2021/07/04 08:12:04;;;;;;;;;2.50;2.50;;;;;20.45;69.90;100994.88;5017164;28;45421;-82
2021/07/04 08:14:29;;;;;;;;;2.00;2.00;;;;;20.46;70.44;100982.38;5019225;28;45335;-81
2021/07/04 08:16:55;;;;;;;;;1.00;1.00;;;;;20.52;69.64;100981.09;5018649;28;45933;-81
2021/07/04 08:19:20;;;;;;;;;5.25;4.00;;;;;20.52;70.98;100954.41;5012601;28;45669;-81
2021/07/04 08:21:46;;;;;;;;;2.75;2.75;;;;;20.51;69.88;100952.69;5016453;28;45616;-81
2021/07/04 08:24:11;;;;;;;;;5.50;4.50;;;;;20.52;69.28;100938.38;5012324;28;45489;-81
2021/07/04 08:26:37;;;;;;;;;3.00;3.00;;;;;20.53;69.54;100935.59;5015948;28;45385;-81
2021/07/04 08:29:03;;;;;;;;;3.25;3.00;;;;;20.61;69.48;100943.06;5018548;28;45407;-81
2021/07/04 08:31:29;;;;;;;;;2.00;2.00;;;;;20.67;68.78;100950.59;5018248;28;46350;-81
2021/07/04 08:33:54;;;;;;;;;3.00;3.00;;;;;20.67;69.10;100934.56;5015926;28;45572;-81
2021/07/04 08:36:21;;;;;;;;;2.25;2.25;;;;;20.74;68.87;100937.66;5018925;28;45222;-81
2021/07/04 08:38:46;;;;;;;;;2.75;1.00;;;;;20.76;68.26;100934.88;5015846;28;45529;-81
2021/07/04 08:41:14;;;;;;;;;2.50;2.00;;;;;20.79;68.32;100935.50;5014138;28;46100;-80
2021/07/04 08:43:39;;;;;;;;;2.50;2.00;;;;;20.83;68.35;100941.47;5018886;28;45434;-81
2021/07/04 08:46:06;;;;;;;;;1.00;1.00;;;;;20.89;67.41;100951.69;5017896;28;45395;-81
2021/07/04 08:48:36;;;;;;;;;3.00;2.00;;;;;20.90;68.10;100953.41;5002230;28;46939;-81
2021/07/04 08:51:03;;;;;;;;;3.00;2.00;;;;;20.92;67.55;100955.97;5019715;28;46490;-80
2021/07/04 08:53:29;;;;;;;;;4.00;2.00;;;;;20.94;67.66;100964.72;5020527;28;45534;-81
2021/07/04 08:55:54;;;;;;;;;2.50;2.00;;;;;20.92;66.45;100955.97;5020189;28;45326;-81
2021/07/04 08:58:22;;;;;;;;;1.25;1.25;;;;;20.94;66.93;100958.53;5016835;28;45373;-81
2021/07/04 09:01:11;;;;;;;;;2.75;2.00;;;;;20.91;66.67;100947.09;5020103;28;46703;-81
2021/07/04 09:03:38;;;;;;;;;0.75;0.75;;;;;20.89;66.58;100957.03;5003496;28;45479;-81
2021/07/04 09:06:04;;;;;;;;;2.00;2.00;;;;;20.92;67.12;100961.31;5015629;28;47431;-81
2021/07/04 09:08:29;;;;;;;;;1.50;1.50;;;;;20.88;66.80;100955.34;5001743;28;47302;-82
2021/07/04 09:11:08;;;;;;;;;3.00;2.00;;;;;20.90;66.82;100958.75;5019225;28;45474;-82
2021/07/04 09:13:33;;;;;;;;;2.00;2.00;;;;;20.85;65.75;100954.69;5017817;28;45480;-81
2021/07/04 09:16:09;;;;;;;;;1.25;1.00;;;;;20.89;65.58;100959.72;5019342;28;45375;-82
2021/07/04 09:18:35;;;;;;;;;1.00;1.00;;;;;20.85;63.46;100949.38;5018900;28;45213;-82
2021/07/04 09:21:01;;;;;;;;;0.00;0.00;;;;;20.82;65.19;100950.44;5019073;28;45408;-82
2021/07/04 09:23:36;;;;;;;;;1.00;1.00;;;;;20.85;64.52;100950.22;5019869;28;45416;-81
2021/07/04 09:26:02;;;;;;;;;2.00;2.00;;;;;20.85;65.05;100955.56;5015318;28;45407;-83
2021/07/04 09:28:28;;;;;;;;;1.00;1.00;;;;;20.89;66.04;100949.03;5020001;28;45464;-83
2021/07/04 09:30:57;;;;;;;;;2.00;2.00;;;;;20.92;64.03;100940.78;5019637;28;46023;-84
2021/07/04 09:33:32;;;;;;;;;1.00;1.00;;;;;20.89;63.78;100938.34;5018307;28;45486;-83
2021/07/04 09:36:05;;;;;;;;;3.25;2.00;;;;;20.90;65.12;100937.38;5016718;28;45293;-83
2021/07/04 09:38:39;;;;;;;;;1.00;1.00;;;;;20.93;63.38;100925.63;5023638;28;45346;-84
2021/07/04 09:41:08;;;;;;;;;1.25;1.25;;;;;20.96;64.53;100927.22;5020845;28;45477;-89
2021/07/04 09:43:37;;;;;;;;;1.25;1.25;;;;;21.02;65.07;100932.09;5019366;28;45445;-82
2021/07/04 09:46:11;;;;;;;;;1.25;1.00;;;;;21.02;64.99;100924.09;5017005;28;45405;-83
2021/07/04 09:48:42;;;;;;;;;1.25;1.25;;;;;21.06;65.40;100933.59;5017701;28;45442;-83
2021/07/04 09:51:15;;;;;;;;;2.00;1.00;;;;;21.09;66.08;100927.16;4999509;28;46412;-83
2021/07/04 09:53:48;;;;;;;;;3.00;2.00;;;;;21.01;65.66;100943.78;5017914;28;45723;-82
2021/07/04 09:56:19;;;;;;;;;1.00;1.00;;;;;20.97;65.43;100937.78;5017573;28;45626;-82
2021/07/04 09:58:49;;;;;;;;;1.75;1.25;;;;;20.95;65.52;100934.38;5016205;28;45337;-81
2021/07/04 10:01:34;;;;;;;;;5.75;2.50;;;;;20.90;65.89;100937.38;5018081;28;45563;-78
2021/07/04 10:04:00;;;;;;;;;2.00;2.00;;;;;20.86;66.21;100935.91;5015367;28;45414;-83
2021/07/04 10:06:26;;;;;;;;;2.00;2.00;;;;;20.88;66.66;100923.28;5014421;28;46585;-83
2021/07/04 10:08:52;;;;;;;;;1.00;1.00;;;;;20.97;66.77;100926.22;5019177;28;45320;-84
2021/07/04 10:11:17;;;;;;;;;1.75;1.75;;;;;21.03;66.74;100925.81;5018837;28;46421;-83
2021/07/04 10:13:45;;;;;;;;;3.25;2.25;;;;;21.12;67.02;100927.78;5012210;28;45507;-83
2021/07/04 10:16:14;;;;;;;;;2.00;2.00;;;;;21.20;67.25;100924.53;5017394;28;45632;-84
2021/07/04 10:18:42;;;;;;;;;3.75;3.00;;;;;21.30;67.09;100919.34;5016640;28;45430;-84
2021/07/04 10:21:09;;;;;;;;;1.50;1.50;;;;;21.36;67.33;100910.00;5018808;28;45281;-84
2021/07/04 10:23:34;;;;;;;;;6.50;3.00;;;;;21.42;66.65;100906.00;5017745;28;45564;-82
2021/07/04 10:26:00;;;;;;;;;2.00;2.00;;;;;21.51;66.83;100913.31;5017715;28;45301;-83
2021/07/04 10:28:30;;;;;;;;;3.00;3.00;;;;;21.57;65.82;100906.66;5015701;28;45294;-83
2021/07/04 10:30:57;;;;;;;;;2.00;2.00;;;;;21.62;65.94;100907.13;5016408;28;45443;-83
2021/07/04 10:33:34;;;;;;;;;3.00;3.00;;;;;21.69;66.28;100910.19;5014834;28;45418;-83
2021/07/04 10:36:07;;;;;;;;;4.00;4.00;;;;;21.71;65.89;100910.91;5017232;28;45463;-83
2021/07/04 10:38:38;;;;;;;;;2.00;2.00;;;;;21.64;65.63;100907.00;5021212;28;45602;-83
2021/07/04 10:41:14;;;;;;;;;2.00;2.00;;;;;21.52;65.33;100898.97;5019960;28;46394;-83
2021/07/04 10:44:07;;;;;;;;;2.75;1.00;;;;;21.48;65.32;100898.34;5021346;28;45488;-83
2021/07/04 10:49:25;;;;;;;;;1.00;1.00;;;;;21.34;64.75;100901.25;5021053;28;45588;-82
2021/07/04 10:51:53;;;;;;;;;2.00;1.00;;;;;21.33;65.44;100910.25;5020100;28;46202;-83
2021/07/04 10:54:38;;;;;;;;;3.75;2.00;;;;;21.25;65.49;100916.16;5021839;28;45757;-84
2021/07/04 10:57:05;;;;;;;;;5.00;3.00;;;;;21.23;65.09;100908.28;5016853;28;45486;-83
2021/07/04 10:59:31;;;;;;;;;5.50;3.00;;;;;21.24;64.97;100899.28;5018980;28;45538;-82
2021/07/04 11:01:58;;;;;;;;;3.00;1.00;;;;;21.27;65.45;100911.56;5018653;28;46515;-83
2021/07/04 11:04:33;;;;;;;;;3.00;3.00;;;;;21.32;65.87;100897.84;5010411;28;45544;-82
2021/07/04 11:07:00;;;;;;;;;2.00;2.00;;;;;21.28;66.29;100897.25;5020923;28;45233;-82
2021/07/04 11:09:57;;;;;;;;;3.00;3.00;;;;;21.33;66.05;100892.41;5021498;28;45447;-82
2021/07/04 11:12:30;;;;;;;;;2.50;2.00;;;;;21.33;66.10;100883.50;5020150;28;45585;-82
2021/07/04 11:15:11;;;;;;;;;4.00;2.75;;;;;21.40;65.94;100883.88;5015028;28;45220;-83
2021/07/04 11:17:55;;;;;;;;;3.25;2.00;;;;;21.42;66.09;100882.78;5021245;28;45433;-82
2021/07/04 11:20:21;;;;;;;;;3.25;2.00;;;;;21.46;65.12;100878.03;5021437;28;45603;-83
2021/07/04 11:23:01;;;;;;;;;2.00;2.00;;;;;21.51;64.52;100875.88;5026403;28;45467;-82
2021/07/04 11:25:42;;;;;;;;;4.00;3.00;;;;;21.50;65.56;100873.34;5010754;28;45721;-82
2021/07/04 11:28:19;;;;;;;;;2.00;2.00;;;;;21.50;65.47;100876.00;5021980;28;45237;-82
2021/07/04 11:30:46;;;;;;;;;3.00;3.00;;;;;21.44;65.22;100861.28;5019965;28;45499;-82
2021/07/04 11:33:42;;;;;;;;;1.00;1.00;;;;;21.51;65.57;100869.69;5021184;28;46548;-82
2021/07/04 11:36:26;;;;;;;;;2.50;2.50;;;;;21.47;64.90;100861.06;5020526;28;45349;-82
2021/07/04 11:39:08;;;;;;;;;4.75;4.00;;;;;21.43;65.69;100852.44;5031601;28;45403;-82
2021/07/04 11:41:45;;;;;;;;;5.50;4.75;;;;;21.42;64.97;100860.56;5020383;28;45443;-82
2021/07/04 11:44:17;;;;;;;;;5.00;5.00;;;;;21.43;64.62;100865.81;5019211;28;45450;-82
2021/07/04 11:46:45;;;;;;;;;2.75;2.50;;;;;21.41;65.00;100857.03;5020961;28;45264;-82
2021/07/04 11:49:18;;;;;;;;;4.00;3.50;;;;;21.36;64.54;100853.84;5021343;28;45273;-82
2021/07/04 11:51:51;;;;;;;;;1.75;1.75;;;;;21.35;64.65;100861.03;5020296;28;45554;-82
2021/07/04 11:54:21;;;;;;;;;2.50;2.50;;;;;21.37;64.06;100863.59;5019779;28;46123;-82
2021/07/04 11:57:30;;;;;;;;;2.75;2.75;;;;;21.33;64.37;100859.47;5013869;28;45692;-82
2021/07/04 12:00:03;;;;;;;;;3.50;2.25;;;;;21.28;64.02;100846.44;5029992;28;45544;-82
2021/07/04 12:02:29;;;;;;;;;2.00;2.00;;;;;21.28;63.90;100851.81;5022236;28;45321;-82
2021/07/04 12:04:55;;;;;;;;;1.00;1.00;;;;;21.22;63.99;100838.88;5023759;28;45436;-82
2021/07/04 12:07:23;;;;;;;;;1.75;1.00;;;;;21.15;63.21;100838.53;5025780;28;45599;-82
2021/07/04 12:09:50;;;;;;;;;1.75;1.75;;;;;21.20;63.46;100844.38;5010704;28;45510;-82
2021/07/04 12:12:30;;;;;;;;;2.00;2.00;;;;;21.22;63.55;100852.25;5020078;28;45443;-82
2021/07/04 12:14:56;;;;;;;;;1.25;1.25;;;;;21.17;63.18;100846.41;5020380;28;45464;-82
2021/07/04 12:17:31;;;;;;;;;1.00;1.00;;;;;21.11;62.69;100859.25;5020060;28;45352;-82
2021/07/04 12:19:59;;;;;;;;;3.00;1.75;;;;;21.08;63.00;100854.19;5019780;28;45436;-82
2021/07/04 12:22:41;;;;;;;;;2.00;2.00;;;;;21.04;63.42;100863.38;5018693;28;45392;-82
2021/07/04 12:25:16;;;;;;;;;0.25;0.25;;;;;21.08;63.03;100859.53;5011884;28;46695;-82
2021/07/04 12:27:50;;;;;;;;;0.25;0.25;;;;;21.07;63.32;100860.47;5019279;28;45501;-82
2021/07/04 12:30:21;;;;;;;;;0.00;0.00;;;;;21.00;63.67;100845.84;5020211;28;45356;-82
2021/07/04 12:32:50;;;;;;;;;3.75;1.50;;;;;21.01;63.94;100839.59;5020655;28;45322;-82
2021/07/04 12:35:26;;;;;;;;;2.25;1.25;;;;;21.08;63.56;100839.97;5020753;28;46546;-82
2021/07/04 12:37:53;;;;;;;;;1.00;1.00;;;;;21.09;63.78;100826.47;5017571;28;45230;-82
2021/07/04 12:40:23;;;;;;;;;1.00;1.00;;;;;21.20;64.75;100832.81;5020034;28;45277;-82
2021/07/04 12:42:48;;;;;;;;;1.00;1.00;;;;;21.24;64.17;100821.78;5018921;28;45463;-82
2021/07/04 12:45:24;;;;;;;;;1.25;1.25;;;;;21.35;63.94;100828.09;5018796;28;46263;-82
2021/07/04 12:48:02;;;;;;;;;2.50;1.25;;;;;21.47;62.83;100837.00;5016176;28;45745;-81
2021/07/04 12:50:38;;;;;;;;;0.25;0.25;;;;;21.55;63.56;100833.72;5018805;28;45230;-81
2021/07/04 12:53:03;;;;;;;;;1.00;1.00;;;;;21.64;63.66;100837.47;5019495;28;45268;-81
2021/07/04 12:55:38;;;;;;;;;2.75;1.00;;;;;21.67;62.22;100837.25;5018771;28;45838;-82
2021/07/04 12:58:39;;;;;;;;;1.00;1.00;;;;;21.72;62.83;100823.50;5019256;28;45281;-82
2021/07/04 13:01:14;;;;;;;;;1.50;1.50;;;;;21.81;62.61;100828.97;4937407;28;45411;-81
2021/07/04 13:03:48;;;;;;;;;1.25;1.25;;;;;21.81;62.55;100826.28;5008713;28;45434;-81
2021/07/04 13:06:32;;;;;;;;;1.00;1.00;;;;;21.87;62.74;100821.47;5019226;28;46166;-81
2021/07/04 13:08:59;;;;;;;;;2.00;2.00;;;;;21.84;62.71;100809.16;5007901;28;45395;-81
2021/07/04 13:11:25;;;;;;;;;5.00;2.00;;;;;21.85;61.81;100804.66;5017736;28;45474;-85
2021/07/04 13:13:58;;;;;;;;;1.75;1.75;;;;;21.94;62.31;100800.41;5019512;28;45385;-84
2021/07/04 13:16:23;;;;;;;;;2.00;2.00;;;;;21.97;62.70;100801.03;5020661;28;46569;-84
2021/07/04 13:18:49;;;;;;;;;1.25;1.25;;;;;22.07;63.04;100800.28;5019277;28;45369;-87
2021/07/04 13:21:31;;;;;;;;;2.00;2.00;;;;;22.13;62.24;100784.56;5019595;28;45393;-88
2021/07/04 13:24:32;;;;;;;;;2.00;2.00;;;;;22.27;62.23;100785.25;5019583;28;45537;-87
2021/07/04 13:27:14;;;;;;;;;2.00;1.00;;;;;22.28;61.69;100780.72;4916367;28;48387;-87
2021/07/04 13:29:41;;;;;;;;;2.00;1.00;;;;;22.20;61.84;100778.72;5006784;28;45329;-90
2021/07/04 13:32:15;;;;;;;;;3.75;2.00;;;;;22.04;61.88;100771.94;5001178;28;45370;-84
2021/07/04 13:34:44;;;;;;;;;2.00;2.00;;;;;21.92;61.96;100782.66;5019345;28;45458;-87
2021/07/04 13:37:11;;;;;;;;;0.00;0.00;;;;;21.83;61.43;100777.19;5000887;28;47203;-80
2021/07/04 13:40:09;;;;;;;;;3.50;2.25;;;;;21.70;61.64;100767.47;5018895;28;45774;-80
2021/07/04 13:42:36;;;;;;;;;1.00;1.00;;;;;21.63;61.87;100771.59;5007081;28;45526;-79
2021/07/04 13:45:06;;;;;;;;;2.00;0.00;;;;;21.57;61.62;100768.44;5011180;28;45205;-79
2021/07/04 13:47:31;;;;;;;;;2.00;2.00;;;;;21.63;62.11;100772.44;5012938;28;45297;-84
2021/07/04 13:49:57;;;;;;;;;1.00;1.00;;;;;21.72;62.18;100776.22;5001778;28;45482;-83
2021/07/04 13:52:22;;;;;;;;;1.00;1.00;;;;;21.74;62.38;100768.91;5018612;28;45393;-83
2021/07/04 13:54:48;;;;;;;;;1.00;1.00;;;;;21.74;62.03;100763.56;5019291;28;45410;-83
2021/07/04 13:57:14;;;;;;;;;1.00;1.00;;;;;21.76;61.96;100774.13;5018346;28;45335;-83
2021/07/04 13:59:40;;;;;;;;;2.00;2.00;;;;;21.69;61.74;100765.75;5023665;28;45374;-83
2021/07/04 14:02:06;;;;;;;;;1.00;1.00;;;;;21.63;62.18;100755.56;5028387;28;45431;-83
2021/07/04 14:04:32;;;;;;;;;1.00;1.00;;;;;21.61;61.64;100770.88;5017359;28;45494;-84
2021/07/04 14:07:01;;;;;;;;;1.00;1.00;;;;;21.52;61.75;100797.38;5018626;28;45405;-80
2021/07/04 14:09:27;;;;;;;;;2.00;2.00;;;;;21.38;66.52;100849.25;5018930;28;45462;-80
2021/07/04 14:11:52;;;;;;;;;0.00;0.00;;;;;21.28;66.39;100817.06;5029591;28;45503;-78
2021/07/04 14:14:17;;;;;;;;;1.00;1.00;;;;;21.17;66.51;100800.97;5020490;28;46077;-78
2021/07/04 14:16:45;;;;;;;;;0.00;0.00;;;;;21.20;66.53;100798.06;5022607;28;45495;-78
2021/07/04 14:19:10;;;;;;;;;3.00;1.75;;;;;21.20;67.74;100795.41;5022306;28;45596;-78
2021/07/04 14:21:36;;;;;;;;;4.75;1.75;;;;;21.29;68.33;100801.84;5002766;28;45491;-77
2021/07/04 14:24:01;;;;;;;;;2.00;1.00;;;;;21.34;68.59;100789.81;5021552;28;45531;-77
2021/07/04 14:26:26;;;;;;;;;2.00;2.00;;;;;21.48;67.73;100801.28;5022031;28;45489;-77
2021/07/04 14:28:52;;;;;;;;;3.00;2.50;;;;;21.55;68.30;100805.16;5022637;28;45324;-77
2021/07/04 14:31:17;;;;;;;;;1.50;1.25;;;;;21.59;67.70;100795.91;5021941;28;45482;-77
2021/07/04 14:33:43;;;;;;;;;3.25;1.25;;;;;21.66;67.31;100798.94;5021912;28;45222;-77
2021/07/04 14:36:08;;;;;;;;;1.00;1.00;;;;;21.77;67.69;100798.09;5022122;28;45450;-78
2021/07/04 14:38:34;;;;;;;;;1.00;1.00;;;;;21.86;67.33;100800.97;5022282;28;45411;-76
2021/07/04 14:40:59;;;;;;;;;2.00;1.75;;;;;21.91;66.79;100801.50;5021671;28;45902;-75
2021/07/04 14:43:25;;;;;;;;;2.00;2.00;;;;;21.93;66.93;100799.53;5020636;28;45446;-76
2021/07/04 14:45:51;;;;;;;;;1.00;1.00;;;;;21.91;67.22;100797.00;5018404;28;45635;-76
2021/07/04 14:48:16;;;;;;;;;2.00;2.00;;;;;21.91;66.53;100793.47;5022021;28;45270;-78
2021/07/04 14:50:47;;;;;;;;;0.75;0.75;;;;;21.87;66.34;100787.53;5021169;28;45217;-75
2021/07/04 14:53:12;;;;;;;;;2.00;2.00;;;;;21.91;67.91;100796.16;5021874;28;45482;-76
2021/07/04 14:55:40;;;;;;;;;1.00;1.00;;;;;21.97;67.74;100786.78;5020974;28;45420;-76
2021/07/04 14:58:09;;;;;;;;;3.00;1.25;;;;;22.06;67.83;100799.41;5020904;28;45424;-76
2021/07/04 15:00:35;;;;;;;;;0.75;0.75;;;;;22.06;67.55;100794.06;5027783;28;45674;-76
2021/07/04 15:03:00;;;;;;;;;1.00;1.00;;;;;22.11;67.79;100794.53;5018420;28;45516;-76
2021/07/04 15:05:26;;;;;;;;;1.50;1.00;;;;;22.12;67.63;100785.53;5021024;28;48113;-76
2021/07/04 15:07:52;;;;;;;;;0.00;0.00;;;;;22.13;67.04;100781.88;5020798;28;45356;-76
2021/07/04 15:10:21;;;;;;;;;2.25;1.25;;;;;22.07;66.29;100770.84;5020933;28;45281;-76
2021/07/04 15:12:47;;;;;;;;;1.75;1.75;;;;;22.11;66.51;100782.97;5021855;28;45446;-76
2021/07/04 15:15:13;;;;;;;;;0.00;0.00;;;;;22.09;66.21;100784.94;5018643;28;45546;-76
2021/07/04 15:17:38;;;;;;;;;0.25;0.25;;;;;22.02;66.59;100782.78;5021576;28;45704;-76
2021/07/04 15:20:05;;;;;;;;;1.00;1.00;;;;;22.02;66.67;100777.41;5021204;28;45506;-76
2021/07/04 15:22:30;;;;;;;;;1.75;1.50;;;;;22.02;66.71;100781.91;5020765;28;45248;-75
2021/07/04 15:24:56;;;;;;;;;1.00;1.00;;;;;22.01;66.22;100774.84;5020036;28;45618;-75
2021/07/04 15:27:21;;;;;;;;;0.75;0.00;;;;;21.99;66.88;100772.31;5021895;28;45333;-75
2021/07/04 15:29:46;;;;;;;;;1.50;1.50;;;;;21.98;66.53;100783.13;5020151;28;45359;-75
2021/07/04 15:32:12;;;;;;;;;2.00;2.00;;;;;21.95;65.72;100789.59;5020947;28;45221;-75
2021/07/04 15:34:37;;;;;;;;;1.00;1.00;;;;;21.94;66.50;100782.53;5024209;28;45259;-75
2021/07/04 15:37:03;;;;;;;;;1.00;1.00;;;;;21.88;66.39;100783.88;5030328;28;45201;-75
2021/07/04 15:39:28;;;;;;;;;1.00;0.25;;;;;21.87;66.08;100786.69;5021404;28;45371;-75
2021/07/04 15:41:56;;;;;;;;;1.25;1.25;;;;;21.87;67.79;100790.22;5021687;28;45201;-75
2021/07/04 15:44:21;;;;;;;;;0.50;0.50;;;;;21.87;67.68;100787.53;5020482;28;46414;-75
2021/07/04 15:46:49;;;;;;;;;2.50;1.00;;;;;21.90;67.86;100783.75;5020349;28;45368;-75
2021/07/04 15:49:16;;;;;;;;;2.00;2.00;;;;;21.98;67.50;100780.44;5015834;28;45435;-76
2021/07/04 15:51:43;;;;;;;;;1.00;1.00;;;;;22.05;67.59;100787.00;5020864;28;45454;-75
2021/07/04 15:54:09;;;;;;;;;2.50;2.00;;;;;22.07;67.13;100771.69;5020513;28;45589;-75
2021/07/04 15:56:34;;;;;;;;;2.25;2.25;;;;;22.11;66.86;100781.16;5020567;28;45158;-75
2021/07/04 15:59:00;;;;;;;;;3.00;2.25;;;;;22.13;67.85;100778.34;5021605;28;45240;-75
2021/07/04 16:01:26;;;;;;;;;1.00;0.75;;;;;22.13;66.75;100773.84;5033255;28;47216;-75
2021/07/04 16:03:52;;;;;;;;;2.00;2.00;;;;;22.13;66.68;100770.31;5018177;28;46258;-76
2021/07/04 16:06:19;;;;;;;;;2.25;2.25;;;;;22.13;65.92;100768.50;5020338;28;45429;-76
2021/07/04 16:08:44;;;;;;;;;1.50;1.50;;;;;22.17;66.46;100777.13;5020692;28;45364;-76
2021/07/04 16:11:10;;;;;;;;;2.00;2.00;;;;;22.22;66.35;100768.72;5021180;28;45516;-76
2021/07/04 16:13:35;;;;;;;;;0.75;0.75;;;;;22.23;66.26;100760.56;5018902;28;45681;-76
2021/07/04 16:16:01;;;;;;;;;2.00;2.00;;;;;22.28;66.23;100762.00;5020153;28;45312;-76
2021/07/04 16:18:27;;;;;;;;;2.00;2.00;;;;;22.31;66.13;100762.59;5021199;28;45367;-76
2021/07/04 16:20:52;;;;;;;;;2.00;2.00;;;;;22.31;66.02;100759.06;5018988;28;45519;-76
2021/07/04 16:23:18;;;;;;;;;1.00;1.00;;;;;22.34;66.29;100757.00;5019089;28;45692;-76
2021/07/04 16:25:43;;;;;;;;;2.25;2.25;;;;;22.35;65.55;100755.16;5020828;28;45295;-76
2021/07/04 16:28:09;;;;;;;;;2.00;2.00;;;;;22.34;65.13;100754.31;5001365;28;45184;-76
2021/07/04 16:30:34;;;;;;;;;2.50;2.00;;;;;22.32;65.28;100758.94;5020760;28;45234;-76
2021/07/04 16:33:00;;;;;;;;;0.50;0.50;;;;;22.37;65.06;100761.25;5019975;28;45443;-76
2021/07/04 16:35:27;;;;;;;;;2.25;1.00;;;;;22.33;65.19;100755.28;5017109;28;45222;-76
2021/07/04 16:37:53;;;;;;;;;3.50;1.50;;;;;22.40;65.48;100757.47;5020212;28;45370;-76
2021/07/04 16:40:22;;;;;;;;;1.00;1.00;;;;;22.39;64.57;100761.09;5019427;28;45517;-75
2021/07/04 16:42:51;;;;;;;;;2.25;1.00;;;;;22.38;64.53;100768.28;5018741;28;46342;-76
2021/07/04 16:45:18;;;;;;;;;1.00;1.00;;;;;22.17;63.36;100771.78;5015444;28;46553;-76
2021/07/04 16:47:44;;;;;;;;;0.25;0.25;;;;;21.94;64.52;100762.94;5015982;28;45343;-75
2021/07/04 16:50:12;;;;;;;;;0.25;0.25;;;;;21.79;67.11;100769.41;4990563;28;47317;-77
2021/07/04 16:52:37;;;;;;;;;0.00;0.00;;;;;21.68;66.26;100764.91;5012223;28;45692;-77
2021/07/04 16:55:14;;;;;;;;;1.50;1.50;;;;;21.64;66.82;100778.63;5130965;27;45709;-84
2021/07/04 16:57:40;;;;;;;;;2.00;2.00;;;;;21.59;67.94;100776.34;5097439;27;45665;-79
2021/07/04 17:00:09;;;;;;;;;2.00;2.00;;;;;21.56;68.47;100788.13;5109687;27;45475;-79
2021/07/04 17:02:34;;;;;;;;;0.00;0.00;;;;;21.51;68.29;100792.16;5116174;27;45581;-79
2021/07/04 17:05:00;;;;;;;;;2.00;1.00;;;;;21.47;69.12;100786.19;5121930;27;45373;-78
2021/07/04 17:07:25;;;;;;;;;1.00;1.00;;;;;21.44;69.54;100791.78;5117092;27;45297;-79
2021/07/04 17:09:51;;;;;;;;;1.75;1.00;;;;;21.38;70.36;100785.09;5117742;27;45329;-79
2021/07/04 17:12:16;;;;;;;;;3.00;1.00;;;;;21.39;70.83;100789.47;5117620;27;45398;-79
2021/07/04 17:14:41;;;;;;;;;2.00;2.00;;;;;21.38;71.19;100778.91;5113437;27;45315;-79
2021/07/04 17:17:07;;;;;;;;;1.75;1.25;;;;;21.41;70.88;100778.66;5104645;27;45399;-79
2021/07/04 17:19:32;;;;;;;;;2.00;0.00;;;;;21.44;70.42;100789.09;5109174;27;45477;-79
2021/07/04 17:21:58;;;;;;;;;0.75;0.75;;;;;21.46;69.67;100789.81;5117320;27;45363;-79
2021/07/04 17:24:24;;;;;;;;;0.75;0.75;;;;;21.42;68.93;100807.94;5115590;27;45467;-78
2021/07/04 17:26:50;;;;;;;;;1.50;1.00;;;;;21.39;68.59;100824.22;5104001;27;45297;-79
2021/07/04 17:29:16;;;;;;;;;0.25;0.25;;;;;21.32;67.87;100836.34;5117125;27;45226;-79
2021/07/04 17:31:41;;;;;;;;;0.75;0.25;;;;;21.19;67.10;100828.44;5116618;27;45328;-78
2021/07/04 17:34:07;;;;;;;;;0.50;0.50;;;;;21.10;66.85;100830.84;5108654;27;45936;-79
2021/07/04 17:36:35;;;;;;;;;1.00;1.00;;;;;21.02;66.71;100834.13;5098890;27;45269;-79
2021/07/04 17:39:03;;;;;;;;;1.00;1.00;;;;;20.97;66.88;100836.25;5123970;27;45404;-79
2021/07/04 17:41:31;;;;;;;;;2.00;0.75;;;;;20.95;66.54;100838.19;5115657;27;45378;-79
2021/07/04 17:43:57;;;;;;;;;1.00;1.00;;;;;20.89;65.61;100844.00;5101118;27;46152;-78
2021/07/04 17:46:22;;;;;;;;;1.00;1.00;;;;;20.85;66.20;100850.53;5108265;27;45272;-79
2021/07/04 17:48:48;;;;;;;;;0.50;0.50;;;;;20.78;66.03;100859.03;5114787;27;45201;-79
2021/07/04 17:51:13;;;;;;;;;1.00;1.00;;;;;20.76;65.85;100860.97;5116773;27;45427;-79
2021/07/04 17:53:39;;;;;;;;;2.00;2.00;;;;;20.68;65.93;100856.19;5108729;27;45474;-78
2021/07/04 17:56:04;;;;;;;;;1.25;1.00;;;;;20.67;65.92;100872.31;5111122;27;45339;-79
2021/07/04 17:58:31;;;;;;;;;0.00;0.00;;;;;20.62;65.75;100861.97;5106223;27;45312;-79
2021/07/04 18:00:58;;;;;;;;;0.50;0.50;;;;;20.63;65.84;100869.03;5112488;27;45764;-78
2021/07/04 18:03:24;;;;;;;;;2.00;1.00;;;;;20.56;65.78;100867.78;5103526;27;46899;-79
2021/07/04 18:05:49;;;;;;;;;2.75;2.00;;;;;20.57;65.86;100866.78;5106352;27;45413;-79
2021/07/04 18:08:15;;;;;;;;;1.00;1.00;;;;;20.55;65.07;100864.25;5095892;27;45263;-79
2021/07/04 18:10:41;;;;;;;;;1.00;1.00;;;;;20.53;65.66;100868.84;5090716;27;45841;-79